createdAt,value
2023-05-09T00:02:02.846Z,8.07
2023-05-09T00:04:30.713Z,8.09
2023-05-09T00:07:00.169Z,8.07
2023-05-09T00:09:27.968Z,8.06
2023-05-09T00:11:55.918Z,8.04
2023-05-09T00:14:24.951Z,8.08
2023-05-09T00:16:53.734Z,8.10
2023-05-09T00:19:24.449Z,8.12
2023-05-09T00:21:54.091Z,8.15
2023-05-09T00:24:21.810Z,8.16
2023-05-09T00:26:49.531Z,8.15
2023-05-09T00:29:17.401Z,8.12
2023-05-09T00:31:45.282Z,8.09
2023-05-09T00:34:13.140Z,8.03
2023-05-09T00:36:41.693Z,8.02
2023-05-09T00:39:09.741Z,8.00
2023-05-09T00:41:37.531Z,7.95
2023-05-09T00:44:06.017Z,7.91
2023-05-09T00:46:34.109Z,7.90
2023-05-09T00:49:02.072Z,7.89
2023-05-09T00:51:32.680Z,7.87
2023-05-09T00:54:00.766Z,7.85
2023-05-09T00:56:28.693Z,7.83
2023-05-09T00:58:57.481Z,7.81
2023-05-09T01:01:25.445Z,7.80
2023-05-09T01:03:54.051Z,7.76
2023-05-09T01:06:43.711Z,7.74
2023-05-09T01:09:46.719Z,7.72
2023-05-09T01:12:26.298Z,7.69
2023-05-09T01:15:08.763Z,7.69
2023-05-09T01:17:48.806Z,7.66
2023-05-09T01:20:34.826Z,7.60
2023-05-09T01:23:38.141Z,7.61
2023-05-09T01:26:15.379Z,7.60
2023-05-09T01:29:32.714Z,7.57
2023-05-09T01:32:05.632Z,7.54
2023-05-09T01:34:35.389Z,7.50
2023-05-09T01:37:05.009Z,7.47
2023-05-09T01:39:34.140Z,7.46
2023-05-09T01:42:03.648Z,7.42
2023-05-09T01:44:36.504Z,7.36
2023-05-09T01:47:06.337Z,7.33
2023-05-09T01:49:36.755Z,7.29
2023-05-09T01:52:08.717Z,7.26
2023-05-09T01:54:37.280Z,7.25
2023-05-09T01:57:06.601Z,7.24
2023-05-09T01:59:35.989Z,7.18
2023-05-09T02:02:03.962Z,7.15
2023-05-09T02:04:32.481Z,7.14
2023-05-09T02:07:00.842Z,7.17
2023-05-09T02:09:28.571Z,7.14
2023-05-09T02:11:56.572Z,7.07
2023-05-09T02:14:24.367Z,7.03
2023-05-09T02:16:52.282Z,7.00
2023-05-09T02:19:20.335Z,7.00
2023-05-09T02:21:49.379Z,6.96
2023-05-09T02:24:17.148Z,6.93
2023-05-09T02:26:46.302Z,6.93
2023-05-09T02:29:16.997Z,6.91
2023-05-09T02:31:46.615Z,6.92
2023-05-09T02:34:14.994Z,6.94
2023-05-09T02:36:43.439Z,6.94
2023-05-09T02:39:11.969Z,6.88
2023-05-09T02:41:40.933Z,6.88
2023-05-09T02:44:08.644Z,6.88
2023-05-09T02:46:36.410Z,6.91
2023-05-09T02:49:04.150Z,6.93
2023-05-09T02:51:31.903Z,6.94
2023-05-09T02:53:59.904Z,6.95
2023-05-09T02:56:29.076Z,6.92
2023-05-09T02:58:56.836Z,6.90
2023-05-09T03:01:25.068Z,6.92
2023-05-09T03:03:53.060Z,6.92
2023-05-09T03:06:21.501Z,6.88
2023-05-09T03:08:49.468Z,6.84
2023-05-09T03:11:17.442Z,6.82
2023-05-09T03:13:46.912Z,6.82
2023-05-09T03:16:17.512Z,6.82
2023-05-09T03:18:45.518Z,6.80
2023-05-09T03:21:13.304Z,6.79
2023-05-09T03:23:41.469Z,6.76
2023-05-09T03:26:09.760Z,6.74
2023-05-09T03:28:38.613Z,6.73
2023-05-09T03:31:07.412Z,6.71
2023-05-09T03:33:35.438Z,6.68
2023-05-09T03:36:03.680Z,6.67
2023-05-09T03:38:32.915Z,6.68
2023-05-09T03:41:00.750Z,6.71
2023-05-09T03:43:28.762Z,6.74
2023-05-09T03:45:57.463Z,6.79
2023-05-09T03:48:26.849Z,6.87
2023-05-09T03:50:54.637Z,6.93
2023-05-09T03:53:23.306Z,6.99
2023-05-09T03:55:52.580Z,7.04
2023-05-09T03:58:21.135Z,7.05
2023-05-09T04:00:49.355Z,7.06
2023-05-09T04:03:20.771Z,7.07
2023-05-09T04:05:49.944Z,7.07
2023-05-09T04:08:27.817Z,7.10
2023-05-09T04:10:55.548Z,7.15
2023-05-09T04:13:24.920Z,7.24
2023-05-09T04:15:52.894Z,7.31
2023-05-09T04:18:20.757Z,7.36
2023-05-09T04:20:48.594Z,7.38
2023-05-09T04:23:16.589Z,7.35
2023-05-09T04:25:44.640Z,7.38
2023-05-09T04:28:13.044Z,7.42
2023-05-09T04:30:42.450Z,7.47
2023-05-09T04:33:11.599Z,7.54
2023-05-09T04:35:41.223Z,7.61
2023-05-09T04:38:09.332Z,7.68
2023-05-09T04:40:37.538Z,7.74
2023-05-09T04:43:06.274Z,7.78
2023-05-09T04:45:34.165Z,7.84
2023-05-09T04:48:02.589Z,7.90
2023-05-09T04:50:30.807Z,7.94
2023-05-09T04:52:58.743Z,7.99
2023-05-09T04:55:26.612Z,8.08
2023-05-09T04:57:56.364Z,8.12
2023-05-09T05:00:24.236Z,8.20
2023-05-09T05:02:52.462Z,8.27
2023-05-09T05:05:24.956Z,8.37
2023-05-09T05:07:54.192Z,8.43
2023-05-09T05:10:23.948Z,8.44
2023-05-09T05:12:55.535Z,8.47
2023-05-09T05:15:24.500Z,8.52
2023-05-09T05:17:52.848Z,8.59
2023-05-09T05:20:22.250Z,8.67
2023-05-09T05:22:50.693Z,8.72
2023-05-09T05:25:18.861Z,8.76
2023-05-09T05:27:48.708Z,8.82
2023-05-09T05:30:17.053Z,8.94
2023-05-09T05:32:44.995Z,9.03
2023-05-09T05:35:14.268Z,9.09
2023-05-09T05:37:43.680Z,9.16
2023-05-09T05:40:13.279Z,9.27
2023-05-09T05:42:44.376Z,9.38
2023-05-09T05:45:12.400Z,9.52
2023-05-09T05:47:42.074Z,9.65
2023-05-09T05:50:12.138Z,9.75
2023-05-09T05:52:41.564Z,9.80
2023-05-09T05:55:11.491Z,9.84
2023-05-09T05:57:39.388Z,9.93
2023-05-09T06:00:12.035Z,9.98
2023-05-09T06:02:51.236Z,10.00
2023-05-09T06:05:29.648Z,10.05
2023-05-09T06:07:57.422Z,10.12
2023-05-09T06:10:25.348Z,10.17
2023-05-09T06:12:53.316Z,10.24
2023-05-09T06:15:21.155Z,10.38
2023-05-09T06:17:51.697Z,10.48
2023-05-09T06:20:19.540Z,10.60
2023-05-09T06:22:47.261Z,10.71
2023-05-09T06:25:16.275Z,10.78
2023-05-09T06:27:46.302Z,10.89
2023-05-09T06:30:25.462Z,11.03
2023-05-09T06:32:58.342Z,11.16
2023-05-09T06:35:26.086Z,11.26
2023-05-09T06:37:54.040Z,11.35
2023-05-09T06:40:22.907Z,11.45
2023-05-09T06:42:50.672Z,11.57
2023-05-09T06:45:20.157Z,11.69
2023-05-09T06:47:48.153Z,11.79
2023-05-09T06:50:16.007Z,11.87
2023-05-09T06:52:44.117Z,11.95
2023-05-09T06:55:13.562Z,12.10
2023-05-09T06:57:41.468Z,12.21
2023-05-09T07:00:10.094Z,12.33
2023-05-09T07:02:41.712Z,12.41
2023-05-09T07:05:10.663Z,12.53
2023-05-09T07:07:40.961Z,12.63
2023-05-09T07:10:11.974Z,12.76
2023-05-09T07:12:41.052Z,12.92
2023-05-09T07:15:11.031Z,13.00
2023-05-09T07:17:39.705Z,13.15
2023-05-09T07:20:08.893Z,13.30
2023-05-09T07:22:37.896Z,13.45
2023-05-09T07:25:11.755Z,13.60
2023-05-09T07:27:40.648Z,13.69
2023-05-09T07:30:09.841Z,13.76
2023-05-09T07:33:16.409Z,13.85
2023-05-09T07:35:46.240Z,13.98
2023-05-09T07:38:21.090Z,14.08
2023-05-09T07:40:49.024Z,14.22
2023-05-09T07:43:17.063Z,14.28
2023-05-09T07:45:47.201Z,14.37
2023-05-09T07:48:20.322Z,14.60
2023-05-09T07:50:48.328Z,14.76
2023-05-09T07:53:16.717Z,14.85
2023-05-09T07:55:59.223Z,15.02
2023-05-09T07:58:28.534Z,15.13
2023-05-09T13:02:56.569Z,23.65
2023-05-09T13:05:23.704Z,23.74
2023-05-09T13:07:54.188Z,24.04
2023-05-09T13:10:26.990Z,24.29
2023-05-09T13:12:53.607Z,24.39
2023-05-09T13:15:21.862Z,24.52
2023-05-09T13:17:50.194Z,24.53
2023-05-09T13:20:17.580Z,24.41
2023-05-09T13:22:45.045Z,24.44
2023-05-09T13:25:12.227Z,24.34
2023-05-09T13:27:38.717Z,24.21
2023-05-09T13:30:08.861Z,24.18
2023-05-09T13:32:35.822Z,24.34
2023-05-09T13:35:03.838Z,24.54
2023-05-09T13:37:30.263Z,24.70
2023-05-09T13:39:56.596Z,24.66
2023-05-09T13:42:23.053Z,24.66
2023-05-09T13:44:49.348Z,24.90
2023-05-09T13:47:15.713Z,25.27
2023-05-09T13:49:42.064Z,25.34
2023-05-09T13:52:08.462Z,25.46
2023-05-09T13:54:34.910Z,25.47
2023-05-09T13:57:04.550Z,25.35
2023-05-09T13:59:31.680Z,25.48
2023-05-09T14:01:59.274Z,25.45
2023-05-09T14:04:26.865Z,25.50
2023-05-09T14:06:54.231Z,25.74
2023-05-09T14:09:21.644Z,26.05
2023-05-09T14:11:51.807Z,26.33
2023-05-09T14:14:22.404Z,26.56
2023-05-09T14:16:48.874Z,26.58
2023-05-09T14:19:15.515Z,26.55
2023-05-09T14:21:42.607Z,26.66
2023-05-09T14:24:09.803Z,26.86
2023-05-09T14:26:36.191Z,27.16
2023-05-09T14:29:03.887Z,27.37
2023-05-09T14:31:31.159Z,27.54
2023-05-09T14:33:59.560Z,27.92
2023-05-09T14:36:27.236Z,28.40
2023-05-09T14:38:53.616Z,28.76
2023-05-09T14:41:21.612Z,28.97
2023-05-09T14:43:48.369Z,29.15
2023-05-09T14:46:15.294Z,29.42
2023-05-09T14:48:41.878Z,29.75
2023-05-09T14:51:08.537Z,29.87
2023-05-09T14:53:39.061Z,30.11
2023-05-09T14:56:10.510Z,30.45
2023-05-09T14:58:36.891Z,30.79
2023-05-09T15:01:03.693Z,31.08
2023-05-09T15:03:30.519Z,31.36
2023-05-09T15:05:58.125Z,31.32
2023-05-09T15:08:24.877Z,31.29
2023-05-09T15:10:51.361Z,31.29
2023-05-09T15:13:17.863Z,31.47
2023-05-09T15:15:44.325Z,31.72
2023-05-09T15:18:12.553Z,31.96
2023-05-09T15:20:38.978Z,32.11
2023-05-09T15:23:08.793Z,32.25
2023-05-09T15:25:35.384Z,31.99
2023-05-09T15:28:01.773Z,32.22
2023-05-09T15:30:28.165Z,32.79
2023-05-09T15:32:54.519Z,33.56
2023-05-09T15:35:20.970Z,33.92
2023-05-09T15:37:47.350Z,34.07
2023-05-09T15:40:14.065Z,34.29
2023-05-09T15:42:40.577Z,34.40
2023-05-09T15:45:07.884Z,34.56
2023-05-09T15:47:34.274Z,34.75
2023-05-09T15:50:00.697Z,35.24
2023-05-09T15:52:27.207Z,35.40
2023-05-09T15:54:55.613Z,35.20
2023-05-09T15:57:22.495Z,35.21
2023-05-09T15:59:48.794Z,35.61
2023-05-09T16:02:15.423Z,36.00
2023-05-09T16:04:43.397Z,36.12
2023-05-09T16:07:10.390Z,36.20
2023-05-09T16:09:37.386Z,36.13
2023-05-09T16:12:04.722Z,35.90
2023-05-09T16:14:31.581Z,35.87
2023-05-09T16:16:58.346Z,35.89
2023-05-09T16:19:24.715Z,36.21
2023-05-09T16:21:51.913Z,36.37
2023-05-09T16:24:18.366Z,36.36
2023-05-09T16:26:44.735Z,36.29
2023-05-09T16:29:12.130Z,36.28
2023-05-09T16:31:39.223Z,36.35
2023-05-09T16:34:05.971Z,36.50
2023-05-09T16:36:32.769Z,36.87
2023-05-09T16:38:59.219Z,37.29
2023-05-09T16:41:25.671Z,37.41
2023-05-09T16:43:52.627Z,37.45
2023-05-09T16:46:19.270Z,37.01
2023-05-09T16:48:45.853Z,36.83
2023-05-09T16:51:12.217Z,36.67
2023-05-09T16:53:38.733Z,36.31
2023-05-09T16:56:05.524Z,36.33
2023-05-09T16:58:31.866Z,36.47
2023-05-09T17:00:59.694Z,36.56
2023-05-09T17:03:26.050Z,36.48
2023-05-09T17:05:52.432Z,36.00
2023-05-09T17:08:19.192Z,35.77
2023-05-09T17:10:45.515Z,35.74
2023-05-09T17:13:11.996Z,35.54
2023-05-09T17:15:38.470Z,35.11
2023-05-09T17:18:05.796Z,34.94
2023-05-09T17:20:32.325Z,34.97
2023-05-09T17:22:58.872Z,34.95
2023-05-09T17:25:25.256Z,34.75
2023-05-09T17:27:51.776Z,33.42
2023-05-09T17:30:20.550Z,31.29
2023-05-09T17:32:49.165Z,29.40
2023-05-09T17:35:18.677Z,27.92
2023-05-09T17:37:45.058Z,26.71
2023-05-09T17:40:11.885Z,25.71
2023-05-09T17:42:38.567Z,24.86
2023-05-09T17:45:05.739Z,24.06
2023-05-09T17:47:32.313Z,23.33
2023-05-09T17:49:59.020Z,22.70
2023-05-09T17:52:26.201Z,22.05
2023-05-09T17:54:52.599Z,21.47
2023-05-09T17:57:19.040Z,21.04
2023-05-09T17:59:47.818Z,20.65
2023-05-09T18:02:14.586Z,20.28
2023-05-09T18:04:41.081Z,19.93
2023-05-09T18:07:07.743Z,19.63
2023-05-09T18:09:34.207Z,19.26
2023-05-09T18:12:00.587Z,18.96
2023-05-09T18:14:27.743Z,18.68
2023-05-09T18:16:54.077Z,18.46
2023-05-09T18:19:20.440Z,18.27
2023-05-09T18:21:46.803Z,18.10
2023-05-09T18:24:16.211Z,17.93
2023-05-09T18:26:43.431Z,17.70
2023-05-09T18:29:09.848Z,17.54
2023-05-09T18:31:38.066Z,17.36
2023-05-09T18:34:05.352Z,17.23
2023-05-09T18:36:31.821Z,17.08
2023-05-09T18:38:58.804Z,16.90
2023-05-09T18:41:25.874Z,16.78
2023-05-09T18:43:52.389Z,16.68
2023-05-09T18:46:21.588Z,16.58
2023-05-09T18:48:50.531Z,16.47
2023-05-09T18:51:17.858Z,16.36
2023-05-09T18:53:45.864Z,16.24
2023-05-09T18:56:13.176Z,16.16
2023-05-09T18:58:39.792Z,16.09
2023-05-09T19:01:10.568Z,16.05
2023-05-09T19:03:42.896Z,15.96
2023-05-09T19:06:09.983Z,15.76
2023-05-09T19:08:36.655Z,15.55
2023-05-09T19:11:03.357Z,15.37
2023-05-09T19:13:32.761Z,15.22
2023-05-09T19:15:59.094Z,15.08
2023-05-09T19:18:25.600Z,14.98
2023-05-09T19:20:52.104Z,14.88
2023-05-09T19:23:19.664Z,14.78
2023-05-09T19:25:46.057Z,14.70
2023-05-09T19:28:14.126Z,14.61
2023-05-09T19:30:40.458Z,14.56
2023-05-09T19:33:07.379Z,14.54
2023-05-09T19:35:34.010Z,14.47
2023-05-09T19:38:00.344Z,14.42
2023-05-09T19:40:26.905Z,14.40
2023-05-09T19:42:53.236Z,14.36
2023-05-09T19:45:19.920Z,14.36
2023-05-09T19:47:46.426Z,14.33
2023-05-09T19:50:13.215Z,14.28
2023-05-09T19:52:39.759Z,14.22
2023-05-09T19:55:06.713Z,14.18
2023-05-09T19:57:33.239Z,14.11
2023-05-09T19:59:59.695Z,14.04
2023-05-09T20:02:26.148Z,13.96
2023-05-09T20:04:53.547Z,13.89
2023-05-09T20:07:19.870Z,13.84
2023-05-09T20:09:46.199Z,13.78
2023-05-09T20:12:13.979Z,13.70
2023-05-09T20:14:40.331Z,13.64
2023-05-09T20:17:06.737Z,13.58
2023-05-09T20:19:33.528Z,13.53
2023-05-09T20:22:01.182Z,13.48
2023-05-09T20:24:28.096Z,13.43
2023-05-09T20:26:54.672Z,13.37
2023-05-09T20:29:21.323Z,13.32
2023-05-09T20:31:47.866Z,13.27
2023-05-09T20:34:17.216Z,13.23
2023-05-09T20:36:50.137Z,13.17
2023-05-09T20:39:17.250Z,13.09
2023-05-09T20:41:44.509Z,13.01
2023-05-09T20:44:11.181Z,12.95
2023-05-09T20:46:37.990Z,12.91
2023-05-09T20:49:04.505Z,12.89
2023-05-09T20:51:31.042Z,12.85
2023-05-09T20:53:57.974Z,12.81
2023-05-09T20:56:27.819Z,12.78
2023-05-09T20:58:54.969Z,12.78
2023-05-09T21:01:22.158Z,12.74
2023-05-09T21:03:48.573Z,12.73
2023-05-09T21:06:15.058Z,12.68
2023-05-09T21:08:41.523Z,12.60
2023-05-09T21:11:07.898Z,12.56
2023-05-09T21:13:34.410Z,12.54
2023-05-09T21:16:00.784Z,12.53
2023-05-09T21:18:27.132Z,12.53
2023-05-09T21:20:53.472Z,12.48
2023-05-09T21:23:20.899Z,12.46
2023-05-09T21:25:47.277Z,12.44
2023-05-09T21:28:14.966Z,12.38
2023-05-09T21:30:41.309Z,12.33
2023-05-09T21:33:07.676Z,12.30
2023-05-09T21:35:34.278Z,12.26
2023-05-09T21:38:00.912Z,12.22
2023-05-09T21:40:27.207Z,12.17
2023-05-09T21:42:53.538Z,12.16
2023-05-09T21:45:20.101Z,12.16
2023-05-09T21:47:46.754Z,12.13
2023-05-09T21:50:13.315Z,12.13
2023-05-09T21:52:39.746Z,12.10
2023-05-09T21:55:06.547Z,12.05
2023-05-09T21:57:32.817Z,12.00
2023-05-09T22:00:00.801Z,11.97
2023-05-09T22:02:30.946Z,11.94
2023-05-09T22:04:57.380Z,11.93
2023-05-09T22:07:23.798Z,11.95
2023-05-09T22:09:50.457Z,11.94
2023-05-09T22:12:16.872Z,11.91
2023-05-09T22:14:52.962Z,11.90
2023-05-09T22:17:21.966Z,11.87
2023-05-09T22:19:48.270Z,11.87
2023-05-09T22:22:14.546Z,11.84
2023-05-09T22:24:41.127Z,11.82
2023-05-09T22:27:08.805Z,11.79
2023-05-09T22:29:35.691Z,11.74
2023-05-09T22:32:02.919Z,11.70
2023-05-09T22:34:30.428Z,11.66
2023-05-09T22:36:56.888Z,11.61
2023-05-09T22:39:23.459Z,11.56
2023-05-09T22:41:49.967Z,11.51
2023-05-09T22:44:16.316Z,11.47
2023-05-09T22:46:42.736Z,11.42
2023-05-09T22:49:09.112Z,11.36
2023-05-09T22:51:35.910Z,11.31
2023-05-09T22:54:02.670Z,11.27
2023-05-09T22:56:29.038Z,11.22
2023-05-09T22:58:55.416Z,11.18
2023-05-09T23:01:21.773Z,11.09
2023-05-09T23:03:48.180Z,11.01
2023-05-09T23:06:14.712Z,10.95
2023-05-09T23:08:41.085Z,10.90
2023-05-09T23:11:07.531Z,10.85
2023-05-09T23:13:34.039Z,10.81
2023-05-09T23:16:00.396Z,10.78
2023-05-09T23:18:27.406Z,10.76
2023-05-09T23:20:53.872Z,10.73
2023-05-09T23:23:20.195Z,10.68
2023-05-09T23:25:46.534Z,10.66
2023-05-09T23:28:12.888Z,10.61
2023-05-09T23:30:39.419Z,10.57
2023-05-09T23:33:05.813Z,10.55
2023-05-09T23:35:32.195Z,10.52
2023-05-09T23:37:58.649Z,10.48
2023-05-09T23:40:25.040Z,10.47
2023-05-09T23:42:51.441Z,10.44
2023-05-09T23:45:18.413Z,10.42
2023-05-09T23:47:45.051Z,10.40
2023-05-09T23:50:12.668Z,10.34
2023-05-09T23:52:40.737Z,10.30
2023-05-09T23:55:07.737Z,10.23
2023-05-09T23:57:34.246Z,10.18
